Ana Sayfa
METAR-TAF:

METAR-TAF

Havaalanları :

Middleton Field

Evergreen, Alabama, Amerika Birleşik Devletleri

Enlem: 31-25-08N, Boylam: 087-02-53W, yükseklik: 78 m

Güncel hava durumu gözlemi

Rapor saat 18:53 UTC de 44 dakika önce yapıldı.
Rüzgar güneybatıdan 7 kt
Sıcaklık 37°C
Nem 40%
Basınç 1014 hPa
Görüş mesafesi: 16.1 km
6000 ft yükseklikte az bulutlu

METAR: KGZH 251853Z AUTO 23007KT 10SM FEW060 37/21 A2994 RMK AO2 SLP133 T03720211

Saat: 14:37 (19:37 UTC)


TAF: eksik

4.000'den fazla havaalanı için hava durumu gözlemleri ve tahminleri (METAR ve TAF raporları).

Kullanılabilir istasyonlar harita üzerinde sarı ve kırmızı noktalarla gösterilir.

İstasyonun adını görmek için fareyi noktanın üzerinde gezdirin.

Sonrasında hava gözlem ve tahminlerini görmek için tıklayın.

Haritayı değiştirmek için: yaklaştırmak için siyah artı işaretli yeşil düğmeye ve uzaklaştırmak için de eksi işaretli düğmeye hızla tıklayın; bitişik haritalar için yeşil okları kullanın.


METAR-TAF: